createdAt,value
2018-08-24T00:00:30.735Z,0
2018-08-24T00:01:30.727Z,0
2018-08-24T00:02:30.724Z,0
2018-08-24T00:03:30.472Z,0
2018-08-24T00:04:30.726Z,0
2018-08-24T00:05:30.725Z,0
2018-08-24T00:06:30.721Z,0
2018-08-24T00:07:30.363Z,0
2018-08-24T00:08:30.965Z,0
2018-08-24T00:09:30.466Z,0
2018-08-24T00:10:30.715Z,0
2018-08-24T00:11:30.457Z,0
2018-08-24T00:12:30.709Z,0
2018-08-24T00:13:30.703Z,0
2018-08-24T00:14:30.453Z,0
2018-08-24T00:15:30.699Z,0
2018-08-24T00:16:30.699Z,0
2018-08-24T00:17:30.704Z,0
2018-08-24T00:18:30.696Z,0
2018-08-24T00:19:30.439Z,0
2018-08-24T00:20:30.690Z,0
2018-08-24T00:21:30.687Z,0
2018-08-24T00:22:30.438Z,0
2018-08-24T00:23:30.693Z,0
2018-08-24T00:24:30.682Z,0
2018-08-24T00:25:30.678Z,0
2018-08-24T00:26:30.675Z,0
2018-08-24T00:27:30.684Z,0
2018-08-24T00:28:30.675Z,0
2018-08-24T00:29:30.419Z,0
2018-08-24T00:30:30.672Z,0
2018-08-24T00:31:30.413Z,0
2018-08-24T00:32:30.672Z,0
2018-08-24T00:33:30.414Z,0
2018-08-24T00:34:30.663Z,0
2018-08-24T00:35:30.660Z,0
2018-08-24T00:36:30.660Z,0
2018-08-24T00:37:30.654Z,0
2018-08-24T00:38:30.649Z,0
2018-08-24T00:39:30.394Z,0
2018-08-24T00:40:30.400Z,0
2018-08-24T00:41:30.644Z,0
2018-08-24T00:42:30.655Z,0
2018-08-24T00:43:30.641Z,0
2018-08-24T00:44:30.642Z,0
2018-08-24T00:45:30.381Z,0
2018-08-24T00:46:30.637Z,0
2018-08-24T00:47:30.379Z,0
2018-08-24T00:48:30.381Z,0
2018-08-24T00:49:30.384Z,0
2018-08-24T00:50:30.622Z,0
2018-08-24T00:51:30.368Z,0
2018-08-24T00:52:30.617Z,0
2018-08-24T00:53:30.366Z,0
2018-08-24T00:54:30.360Z,0
2018-08-24T00:55:30.722Z,0
2018-08-24T00:56:30.359Z,0
2018-08-24T00:57:30.605Z,0
2018-08-24T00:58:30.605Z,0
2018-08-24T00:59:30.600Z,0
2018-08-24T01:00:30.603Z,0
2018-08-24T01:01:30.345Z,0
2018-08-24T01:02:30.593Z,0
2018-08-24T01:03:30.589Z,0
2018-08-24T01:04:30.332Z,0
2018-08-24T01:05:30.590Z,0
2018-08-24T01:06:30.582Z,0
2018-08-24T01:07:30.417Z,0
2018-08-24T01:08:30.578Z,0
2018-08-24T01:09:30.070Z,0
2018-08-24T01:10:30.574Z,0
2018-08-24T01:11:30.567Z,0
2018-08-24T01:12:30.574Z,0
2018-08-24T01:13:30.564Z,0
2018-08-24T01:14:30.563Z,0
2018-08-24T01:15:30.559Z,0
2018-08-24T01:16:30.304Z,0
2018-08-24T01:17:30.554Z,0
2018-08-24T01:18:30.549Z,0
2018-08-24T01:19:30.549Z,0
2018-08-24T01:20:30.544Z,0
2018-08-24T01:21:30.548Z,0
2018-08-24T01:22:30.288Z,0
2018-08-24T01:23:30.533Z,0
2018-08-24T01:24:30.536Z,0
2018-08-24T01:25:30.533Z,0
2018-08-24T01:26:30.537Z,0
2018-08-24T01:27:30.527Z,0
2018-08-24T01:28:30.524Z,0
2018-08-24T01:29:30.275Z,0
2018-08-24T01:30:30.522Z,0
2018-08-24T01:31:30.515Z,0
2018-08-24T01:32:30.517Z,0
2018-08-24T01:33:30.505Z,0
2018-08-24T01:34:30.256Z,0
2018-08-24T01:35:30.252Z,0
2018-08-24T01:36:30.505Z,0
2018-08-24T01:37:30.499Z,0
2018-08-24T01:38:30.249Z,0
2018-08-24T01:39:30.248Z,0
2018-08-24T01:40:30.490Z,0
2018-08-24T01:41:30.236Z,0
2018-08-24T01:42:30.737Z,0
2018-08-24T01:43:30.479Z,0
2018-08-24T01:44:29.982Z,0
2018-08-24T01:45:30.233Z,0
2018-08-24T01:46:29.976Z,0
2018-08-24T01:47:30.472Z,0
2018-08-24T01:48:30.478Z,0
2018-08-24T01:49:30.218Z,0
2018-08-24T01:50:30.462Z,0
2018-08-24T01:51:30.460Z,0
2018-08-24T01:52:30.463Z,0
2018-08-24T01:53:30.208Z,0
2018-08-24T01:54:30.458Z,0
2018-08-24T01:55:30.199Z,0
2018-08-24T01:56:30.444Z,0
2018-08-24T01:57:30.195Z,0
2018-08-24T01:58:30.444Z,0
2018-08-24T01:59:30.227Z,0
2018-08-24T02:00:30.435Z,0
2018-08-24T02:01:30.433Z,0
2018-08-24T02:02:30.432Z,0
2018-08-24T02:03:30.428Z,0
2018-08-24T02:04:29.926Z,0
2018-08-24T02:05:30.422Z,0
2018-08-24T02:06:30.432Z,0
2018-08-24T02:07:30.418Z,0
2018-08-24T02:08:30.167Z,0
2018-08-24T02:09:30.421Z,0
2018-08-24T02:10:30.412Z,0
2018-08-24T02:11:29.906Z,0
2018-08-24T02:12:30.151Z,0
2018-08-24T02:13:30.647Z,0
2018-08-24T02:14:30.654Z,0
2018-08-24T02:15:30.399Z,0
2018-08-24T02:16:30.393Z,0
2018-08-24T02:17:30.414Z,0
2018-08-24T02:18:30.397Z,0
2018-08-24T02:19:30.382Z,0
2018-08-24T02:20:30.382Z,0
2018-08-24T02:21:30.128Z,0
2018-08-24T02:22:30.374Z,0
2018-08-24T02:23:30.372Z,0
2018-08-24T02:24:29.866Z,0
2018-08-24T02:25:30.381Z,0
2018-08-24T02:26:30.371Z,0
2018-08-24T02:27:30.359Z,0
2018-08-24T02:28:30.356Z,0
2018-08-24T02:29:30.104Z,0
2018-08-24T02:30:30.117Z,0
2018-08-24T02:31:30.357Z,0
2018-08-24T02:32:30.361Z,0
2018-08-24T02:33:30.357Z,0
2018-08-24T02:34:30.349Z,0
2018-08-24T02:35:30.344Z,0
2018-08-24T02:36:30.333Z,0
2018-08-24T02:37:30.334Z,0
2018-08-24T02:38:30.328Z,0
2018-08-24T02:39:30.076Z,0
2018-08-24T02:40:30.330Z,0
2018-08-24T02:41:30.318Z,0
2018-08-24T02:42:30.328Z,0
2018-08-24T02:43:30.315Z,0
2018-08-24T02:44:30.591Z,0
2018-08-24T02:45:30.063Z,0
2018-08-24T02:46:30.319Z,0
2018-08-24T02:47:30.301Z,0
2018-08-24T02:48:30.304Z,0
2018-08-24T02:49:30.298Z,0
2018-08-24T02:50:30.298Z,0
2018-08-24T02:51:30.294Z,0
2018-08-24T02:52:30.295Z,0
2018-08-24T02:53:30.036Z,0
2018-08-24T02:54:30.322Z,0
2018-08-24T02:55:30.279Z,0
2018-08-24T02:56:30.273Z,0
2018-08-24T02:57:30.279Z,0
2018-08-24T02:58:30.017Z,0
2018-08-24T02:59:30.026Z,0
2018-08-24T03:00:30.266Z,0
2018-08-24T03:01:30.272Z,0
2018-08-24T03:02:30.259Z,0
2018-08-24T03:03:30.256Z,0
2018-08-24T03:04:30.013Z,0
2018-08-24T03:05:30.560Z,0
2018-08-24T03:06:30.256Z,0
2018-08-24T03:07:30.246Z,0
2018-08-24T03:08:30.631Z,0
2018-08-24T03:09:29.983Z,0
2018-08-24T03:10:29.727Z,0
2018-08-24T03:11:29.975Z,0
2018-08-24T03:12:30.231Z,0
2018-08-24T03:13:29.972Z,0
2018-08-24T03:14:29.747Z,0
2018-08-24T03:15:30.466Z,0
2018-08-24T03:16:30.741Z,0
2018-08-24T03:17:30.213Z,0
2018-08-24T03:18:30.209Z,0
2018-08-24T03:19:29.984Z,0
2018-08-24T03:20:30.214Z,0
2018-08-24T03:21:30.200Z,0
2018-08-24T03:22:29.991Z,0
2018-08-24T03:23:30.207Z,0
2018-08-24T03:24:30.198Z,0
2018-08-24T03:25:30.194Z,4
2018-08-24T03:26:29.926Z,4
2018-08-24T03:27:30.174Z,0
2018-08-24T03:28:29.921Z,0
2018-08-24T03:29:29.918Z,4
2018-08-24T03:30:30.198Z,4
2018-08-24T03:31:29.920Z,4
2018-08-24T03:32:30.186Z,8
2018-08-24T03:33:29.906Z,4
2018-08-24T03:34:29.950Z,4
2018-08-24T03:35:29.647Z,12
2018-08-24T03:36:30.151Z,12
2018-08-24T03:37:30.154Z,8
2018-08-24T03:38:30.140Z,12
2018-08-24T03:39:30.145Z,16
2018-08-24T03:40:30.134Z,16
2018-08-24T03:41:29.888Z,20
2018-08-24T03:42:30.131Z,24
2018-08-24T03:43:30.124Z,28
2018-08-24T03:44:29.871Z,32
2018-08-24T03:45:30.122Z,36
2018-08-24T03:46:30.368Z,40
2018-08-24T03:47:30.113Z,48
2018-08-24T03:48:30.118Z,56
2018-08-24T03:49:29.854Z,60
2018-08-24T03:50:29.851Z,72
2018-08-24T03:51:30.105Z,76
2018-08-24T03:52:29.849Z,88
2018-08-24T03:53:30.363Z,96
2018-08-24T03:54:29.849Z,108
2018-08-24T03:55:30.088Z,120
2018-08-24T03:56:30.085Z,136
2018-08-24T03:57:30.078Z,156
2018-08-24T03:58:29.881Z,176
2018-08-24T03:59:30.075Z,196
2018-08-24T04:00:30.070Z,224
2018-08-24T04:01:29.817Z,244
2018-08-24T04:02:29.811Z,268
2018-08-24T04:03:30.077Z,288
2018-08-24T04:04:30.058Z,320
2018-08-24T04:05:30.055Z,352
2018-08-24T04:06:29.801Z,388
2018-08-24T04:07:29.804Z,432
2018-08-24T04:08:30.056Z,476
2018-08-24T04:09:30.109Z,516
2018-08-24T04:10:29.783Z,556
2018-08-24T04:11:29.526Z,596
2018-08-24T04:12:30.028Z,644
2018-08-24T04:13:29.773Z,680
2018-08-24T04:14:29.774Z,732
2018-08-24T04:15:30.023Z,792
2018-08-24T04:16:29.767Z,852
2018-08-24T04:17:29.765Z,920
2018-08-24T04:18:30.015Z,984
2018-08-24T04:19:30.429Z,1052
2018-08-24T04:20:30.009Z,1092
2018-08-24T04:21:29.999Z,1156
2018-08-24T04:22:29.998Z,1276
2018-08-24T04:23:29.994Z,1308
2018-08-24T04:24:29.990Z,1448
2018-08-24T04:25:30.094Z,1536
2018-08-24T04:26:29.741Z,1616
2018-08-24T04:27:29.978Z,1680
2018-08-24T04:28:29.984Z,1720
2018-08-24T04:29:29.723Z,1768
2018-08-24T04:30:29.974Z,1832
2018-08-24T04:31:29.970Z,1916
2018-08-24T04:32:29.969Z,2024
2018-08-24T04:33:29.710Z,2164
2018-08-24T04:34:29.967Z,2312
2018-08-24T04:35:29.954Z,2468
2018-08-24T04:36:29.953Z,2628
2018-08-24T04:37:29.951Z,2756
2018-08-24T04:38:29.948Z,2872
2018-08-24T04:39:29.945Z,3000
2018-08-24T04:40:30.325Z,3156
2018-08-24T04:41:29.940Z,3400
2018-08-24T04:42:29.947Z,3764
2018-08-24T04:43:29.937Z,4156
2018-08-24T04:44:29.967Z,4428
2018-08-24T04:45:30.253Z,4604
2018-08-24T04:46:29.669Z,4680
2018-08-24T04:47:29.672Z,4732
2018-08-24T04:48:29.664Z,4760
2018-08-24T04:49:29.919Z,4724
2018-08-24T04:50:29.914Z,4640
2018-08-24T04:51:30.293Z,4556
2018-08-24T04:52:29.904Z,4496
2018-08-24T04:53:29.906Z,4460
2018-08-24T04:54:29.955Z,4424
2018-08-24T04:55:29.649Z,4372
2018-08-24T04:56:29.643Z,4340
2018-08-24T04:57:29.897Z,4328
2018-08-24T04:58:29.959Z,4384
2018-08-24T04:59:29.903Z,4328
2018-08-24T05:00:29.647Z,4288
2018-08-24T05:01:29.886Z,4200
2018-08-24T05:02:29.898Z,4232
2018-08-24T05:03:29.887Z,4352
2018-08-24T05:04:29.673Z,4492
2018-08-24T05:05:29.629Z,4684
2018-08-24T05:06:29.877Z,4844
2018-08-24T05:07:29.880Z,4780
2018-08-24T05:08:29.921Z,4580
2018-08-24T05:09:29.951Z,4348
2018-08-24T05:10:29.872Z,4124
2018-08-24T05:11:29.875Z,4060
2018-08-24T05:12:29.867Z,3812
2018-08-24T05:13:29.870Z,3632
2018-08-24T05:14:29.613Z,3616
2018-08-24T05:15:29.866Z,3792
2018-08-24T05:16:29.874Z,4064
2018-08-24T05:17:29.876Z,4392
2018-08-24T05:18:29.609Z,4776
2018-08-24T05:19:29.862Z,5104
2018-08-24T05:20:30.108Z,5396
2018-08-24T05:21:30.417Z,5612
2018-08-24T05:22:29.863Z,5788
2018-08-24T05:23:29.860Z,5984
2018-08-24T05:24:29.890Z,6200
2018-08-24T05:25:29.854Z,6440
2018-08-24T05:26:29.605Z,6712
2018-08-24T05:27:29.859Z,7084
2018-08-24T05:28:29.855Z,7808
2018-08-24T05:29:29.849Z,8464
2018-08-24T05:30:29.849Z,8768
2018-08-24T05:31:29.597Z,8788
2018-08-24T05:32:29.849Z,8980
2018-08-24T05:33:29.850Z,8960
2018-08-24T05:34:29.605Z,8724
2018-08-24T05:35:29.617Z,8544
2018-08-24T05:36:29.592Z,8724
2018-08-24T05:37:29.856Z,8748
2018-08-24T05:38:29.853Z,8504
2018-08-24T05:39:29.852Z,8016
2018-08-24T05:40:29.585Z,7640
2018-08-24T05:41:30.290Z,7752
2018-08-24T05:42:29.835Z,7772
2018-08-24T05:43:29.835Z,7604
2018-08-24T05:44:29.917Z,7844
2018-08-24T05:45:29.842Z,8092
2018-08-24T05:46:29.834Z,8060
2018-08-24T05:47:29.867Z,8504
2018-08-24T05:48:29.838Z,8964
2018-08-24T05:49:29.586Z,9408
2018-08-24T05:50:29.594Z,9916
2018-08-24T05:51:30.091Z,10396
2018-08-24T05:52:29.843Z,10840
2018-08-24T05:53:29.335Z,10960
2018-08-24T05:54:29.581Z,10924
2018-08-24T05:55:29.589Z,10796
2018-08-24T05:56:29.843Z,10400
2018-08-24T05:57:29.885Z,10452
2018-08-24T05:58:29.839Z,10600
2018-08-24T05:59:29.587Z,10580
2018-08-24T06:00:29.332Z,11716
2018-08-24T06:01:29.866Z,11204
2018-08-24T06:02:29.839Z,9748
2018-08-24T06:03:29.841Z,8920
2018-08-24T06:04:29.844Z,7464
2018-08-24T06:05:29.841Z,6848
2018-08-24T06:06:29.592Z,6540
2018-08-24T06:07:29.846Z,6184
2018-08-24T06:08:29.587Z,5696
2018-08-24T06:09:29.336Z,5308
2018-08-24T06:10:29.852Z,5204
2018-08-24T06:11:29.880Z,5284
2018-08-24T06:12:29.590Z,5420
2018-08-24T06:13:29.590Z,5592
2018-08-24T06:14:29.596Z,5692
2018-08-24T06:15:29.853Z,5720
2018-08-24T06:16:29.593Z,5684
2018-08-24T06:17:29.851Z,5528
2018-08-24T06:18:29.852Z,5264
2018-08-24T06:19:29.867Z,5072
2018-08-24T06:20:29.869Z,4876
2018-08-24T06:21:29.891Z,4600
2018-08-24T06:22:30.104Z,4316
2018-08-24T06:23:29.859Z,4116
2018-08-24T06:24:29.411Z,4072
2018-08-24T06:25:29.857Z,3928
2018-08-24T06:26:29.862Z,3764
2018-08-24T06:27:29.863Z,3680
2018-08-24T06:28:29.348Z,3772
2018-08-24T06:29:29.598Z,3980
2018-08-24T06:30:29.853Z,4236
2018-08-24T06:31:29.858Z,4424
2018-08-24T06:32:29.608Z,4464
2018-08-24T06:33:29.880Z,4336
2018-08-24T06:34:29.622Z,4216
2018-08-24T06:35:29.853Z,4152
2018-08-24T06:36:29.902Z,4120
2018-08-24T06:37:29.858Z,4092
2018-08-24T06:38:29.426Z,4104
2018-08-24T06:39:29.600Z,4132
2018-08-24T06:40:29.852Z,4128
2018-08-24T06:41:29.846Z,4044
2018-08-24T06:42:29.857Z,3920
2018-08-24T06:43:29.344Z,3824
2018-08-24T06:44:29.600Z,3772
2018-08-24T06:45:29.595Z,3748
2018-08-24T06:46:29.849Z,3764
2018-08-24T06:47:30.555Z,3768
2018-08-24T06:48:29.851Z,3776
2018-08-24T06:49:29.842Z,3860
2018-08-24T06:50:29.845Z,4076
2018-08-24T06:51:29.594Z,4368
2018-08-24T06:52:29.339Z,4632
2018-08-24T06:53:30.847Z,4832
2018-08-24T06:54:29.851Z,5096
2018-08-24T06:55:29.845Z,5488
2018-08-24T06:56:29.590Z,5924
2018-08-24T06:57:29.844Z,6188
2018-08-24T06:58:29.997Z,6260
2018-08-24T06:59:29.902Z,6364
2018-08-24T07:00:29.837Z,6864
2018-08-24T07:01:29.852Z,7572
2018-08-24T07:02:29.838Z,8440
2018-08-24T07:03:29.336Z,8808
2018-08-24T07:04:29.842Z,8740
2018-08-24T07:05:29.835Z,8604
2018-08-24T07:06:29.841Z,8404
2018-08-24T07:07:29.835Z,7900
2018-08-24T07:08:29.834Z,7324
2018-08-24T07:09:29.834Z,6996
2018-08-24T07:10:29.593Z,6976
2018-08-24T07:11:29.837Z,7156
2018-08-24T07:12:29.655Z,7312
2018-08-24T07:13:29.333Z,7336
2018-08-24T07:14:29.583Z,7280
2018-08-24T07:15:29.830Z,7180
2018-08-24T07:16:29.837Z,7008
2018-08-24T07:17:29.833Z,6680
2018-08-24T07:18:29.839Z,6312
2018-08-24T07:19:29.892Z,6256
2018-08-24T07:20:29.843Z,6532
2018-08-24T07:21:29.840Z,6656
2018-08-24T07:22:29.845Z,6804
2018-08-24T07:23:29.830Z,6684
2018-08-24T07:24:29.856Z,6836
2018-08-24T07:25:29.835Z,7336
2018-08-24T07:26:29.834Z,7944
2018-08-24T07:27:29.577Z,8476
2018-08-24T07:28:29.833Z,8728
2018-08-24T07:29:29.576Z,8648
2018-08-24T07:30:29.830Z,8324
2018-08-24T07:31:29.583Z,8280
2018-08-24T07:32:29.576Z,8464
2018-08-24T07:33:29.578Z,8756
2018-08-24T07:34:29.906Z,8988
2018-08-24T07:35:29.587Z,9164
2018-08-24T07:36:29.826Z,9004
2018-08-24T07:37:29.830Z,8584
2018-08-24T07:38:29.324Z,8048
2018-08-24T07:39:29.830Z,7268
2018-08-24T07:40:29.830Z,6640
2018-08-24T07:41:30.245Z,6032
2018-08-24T07:42:29.834Z,5592
2018-08-24T07:43:29.827Z,5324
2018-08-24T07:44:29.324Z,5240
2018-08-24T07:45:29.831Z,5232
2018-08-24T07:46:29.580Z,5216
2018-08-24T07:47:29.834Z,5172
2018-08-24T07:48:29.831Z,5308
2018-08-24T07:49:29.074Z,5764
2018-08-24T07:50:29.829Z,6544
2018-08-24T07:51:29.587Z,7396
2018-08-24T07:52:29.840Z,8124
2018-08-24T07:53:29.829Z,8544
2018-08-24T07:54:29.577Z,9416
2018-08-24T07:55:29.850Z,10728
2018-08-24T07:56:30.082Z,11612
2018-08-24T07:57:29.832Z,11732
2018-08-24T07:58:29.837Z,11744
2018-08-24T07:59:29.577Z,11960
2018-08-24T08:00:29.828Z,12232
2018-08-24T08:01:29.578Z,12512
2018-08-24T08:02:29.831Z,12912
2018-08-24T08:03:29.840Z,13556
2018-08-24T08:04:29.834Z,14568
2018-08-24T08:05:30.276Z,15680
2018-08-24T08:06:29.830Z,17344
2018-08-24T08:07:29.834Z,16256
2018-08-24T08:08:29.831Z,15472
2018-08-24T08:09:29.580Z,15444
2018-08-24T08:10:29.833Z,15776
2018-08-24T08:11:29.833Z,15840
2018-08-24T08:12:29.935Z,15440
2018-08-24T08:13:29.845Z,15096
2018-08-24T08:14:29.333Z,14948
2018-08-24T08:15:29.839Z,14716
2018-08-24T08:16:29.591Z,14504
2018-08-24T08:17:29.603Z,14480
2018-08-24T08:18:30.126Z,13676
2018-08-24T08:19:29.844Z,13196
2018-08-24T08:20:29.592Z,12956
2018-08-24T08:21:29.602Z,13236
2018-08-24T08:22:29.848Z,13740
2018-08-24T08:23:29.854Z,13920
2018-08-24T08:24:29.380Z,13248
2018-08-24T08:25:29.856Z,11812
2018-08-24T08:26:29.617Z,9856
2018-08-24T08:27:29.854Z,8960
2018-08-24T08:28:29.856Z,10440
2018-08-24T08:29:29.103Z,12492
2018-08-24T08:30:29.876Z,13564
2018-08-24T08:31:29.610Z,12904
2018-08-24T08:32:29.861Z,13200
2018-08-24T08:33:29.361Z,14120
2018-08-24T08:34:29.908Z,14612
2018-08-24T08:35:29.867Z,17280
2018-08-24T08:36:29.619Z,20608
2018-08-24T08:37:29.880Z,25024
2018-08-24T08:38:29.877Z,28480
2018-08-24T08:39:29.628Z,28672
2018-08-24T08:40:29.627Z,27744
2018-08-24T08:41:29.382Z,27360
2018-08-24T08:42:29.641Z,26336
2018-08-24T08:43:29.638Z,22816
2018-08-24T08:44:29.137Z,18112
2018-08-24T08:45:30.405Z,17856
2018-08-24T08:46:29.393Z,19776
2018-08-24T08:47:29.396Z,19968
2018-08-24T08:48:29.908Z,19136
2018-08-24T08:49:29.908Z,18144
2018-08-24T08:50:29.658Z,16704
2018-08-24T08:51:29.912Z,15840
2018-08-24T08:52:29.926Z,15548
2018-08-24T08:53:30.331Z,17152
2018-08-24T08:54:29.685Z,20864
2018-08-24T08:55:29.676Z,20672
2018-08-24T08:56:29.933Z,21344
2018-08-24T08:57:29.687Z,22016
2018-08-24T08:58:30.192Z,22624
2018-08-24T08:59:29.695Z,22240
2018-08-24T09:00:29.698Z,22752
2018-08-24T09:01:29.952Z,24032
2018-08-24T09:02:29.968Z,23264
2018-08-24T09:03:29.966Z,23264
2018-08-24T09:04:29.970Z,21920
2018-08-24T09:05:29.986Z,23168
2018-08-24T09:06:30.481Z,24224
2018-08-24T09:07:29.724Z,22880
2018-08-24T09:08:29.996Z,23072
2018-08-24T09:09:29.737Z,22912
2018-08-24T09:10:29.751Z,22240
2018-08-24T09:11:29.997Z,20032
2018-08-24T09:12:30.014Z,20224
2018-08-24T09:13:30.008Z,21088
2018-08-24T09:14:29.521Z,20576
2018-08-24T09:15:30.019Z,19968
2018-08-24T09:16:30.022Z,19488
2018-08-24T09:17:30.024Z,18624
2018-08-24T09:18:30.324Z,18272
2018-08-24T09:19:29.784Z,19776
2018-08-24T09:20:30.043Z,21344
2018-08-24T09:21:30.043Z,22304
2018-08-24T09:22:30.057Z,22816
2018-08-24T09:23:30.055Z,22912
2018-08-24T09:24:29.556Z,22240
2018-08-24T09:25:30.014Z,21920
2018-08-24T09:26:31.948Z,21376
2018-08-24T09:27:30.077Z,21760
2018-08-24T09:28:29.581Z,22272
2018-08-24T09:29:30.083Z,22624
2018-08-24T09:30:30.090Z,23264
2018-08-24T09:31:29.588Z,22304
2018-08-24T09:32:30.453Z,22144
2018-08-24T09:33:30.108Z,23680
2018-08-24T09:34:30.125Z,21888
2018-08-24T09:35:29.868Z,21152
2018-08-24T09:36:30.128Z,16160
2018-08-24T09:37:30.126Z,14676
2018-08-24T09:38:29.372Z,17728
2018-08-24T09:39:29.632Z,20864
2018-08-24T09:40:30.138Z,22016
2018-08-24T09:41:29.385Z,20864
2018-08-24T09:42:29.895Z,19616
2018-08-24T09:43:29.906Z,16992
2018-08-24T09:44:30.159Z,17728
2018-08-24T09:45:30.165Z,21312
2018-08-24T09:46:30.173Z,23040
2018-08-24T09:47:30.173Z,23040
2018-08-24T09:48:30.178Z,23936
2018-08-24T09:49:29.932Z,23680
2018-08-24T09:50:30.203Z,22368
2018-08-24T09:51:29.948Z,19616
2018-08-24T09:52:30.206Z,18784
2018-08-24T09:53:29.951Z,18848
2018-08-24T09:54:30.209Z,19904
2018-08-24T09:55:29.709Z,21952
2018-08-24T09:56:30.222Z,23360
2018-08-24T09:57:36.490Z,22400
2018-08-24T09:58:30.228Z,21216
2018-08-24T09:59:30.012Z,19520
2018-08-24T10:00:30.491Z,19584
2018-08-24T10:01:30.245Z,21792
2018-08-24T10:03:30.260Z,23200
2018-08-24T10:05:30.030Z,20064
2018-08-24T10:06:30.739Z,19584
2018-08-24T10:07:30.286Z,19552
2018-08-24T10:08:30.026Z,19392
2018-08-24T10:09:29.782Z,20288
2018-08-24T10:10:30.289Z,20256
2018-08-24T10:11:31.720Z,18912
2018-08-24T10:12:30.055Z,19264
2018-08-24T10:13:30.344Z,17728
2018-08-24T10:14:30.064Z,13764
2018-08-24T10:15:30.320Z,12464
2018-08-24T10:16:30.073Z,13080
2018-08-24T10:17:30.337Z,13820
2018-08-24T10:18:30.080Z,14728
2018-08-24T10:19:30.340Z,15528
2018-08-24T10:20:30.097Z,18304
2018-08-24T10:21:30.399Z,19648
2018-08-24T10:22:30.359Z,16512
2018-08-24T10:23:30.105Z,12048
2018-08-24T10:24:30.116Z,10436
2018-08-24T10:25:30.126Z,10392
2018-08-24T10:26:31.405Z,9240
2018-08-24T10:27:30.380Z,8608
2018-08-24T10:28:30.381Z,8844
2018-08-24T10:29:31.293Z,8380
2018-08-24T10:30:30.139Z,8372
2018-08-24T10:31:30.405Z,9716
2018-08-24T10:32:30.400Z,11656
2018-08-24T10:33:30.155Z,14232
2018-08-24T10:34:30.173Z,17632
2018-08-24T10:35:30.163Z,16620
2018-08-24T10:36:30.169Z,16176
2018-08-24T10:37:30.484Z,16920
2018-08-24T10:38:30.189Z,16516
2018-08-24T10:39:30.185Z,16032
2018-08-24T10:40:30.190Z,16612
2018-08-24T10:41:30.192Z,16136
2018-08-24T10:42:30.212Z,15656
2018-08-24T10:43:29.951Z,15164
2018-08-24T10:44:30.464Z,14732
2018-08-24T10:45:30.477Z,14252
2018-08-24T10:46:30.217Z,15188
2018-08-24T10:47:30.125Z,15976
2018-08-24T10:48:30.480Z,16092
2018-08-24T10:49:31.026Z,19072
2018-08-24T10:50:30.355Z,19360
2018-08-24T10:51:30.565Z,20160
2018-08-24T10:52:30.252Z,19200
2018-08-24T10:53:30.504Z,20416
2018-08-24T10:54:30.286Z,22176
2018-08-24T10:55:30.412Z,17216
2018-08-24T10:56:30.524Z,13200
2018-08-24T10:57:30.633Z,10172
2018-08-24T10:58:30.285Z,8248
2018-08-24T10:59:30.539Z,8956
2018-08-24T11:00:30.546Z,8436
2018-08-24T11:01:30.319Z,7036
2018-08-24T11:02:30.304Z,6684
2018-08-24T11:03:30.572Z,6300
2018-08-24T11:04:30.064Z,6116
2018-08-24T11:05:31.185Z,6740
2018-08-24T11:06:30.325Z,7724
2018-08-24T11:07:30.375Z,7656
2018-08-24T11:08:30.591Z,6280
2018-08-24T11:09:30.341Z,5224
2018-08-24T11:10:30.591Z,5024
2018-08-24T11:11:30.349Z,4760
2018-08-24T11:12:30.345Z,4160
2018-08-24T11:13:30.352Z,4004
2018-08-24T11:14:30.360Z,4724
2018-08-24T11:15:30.358Z,6568
2018-08-24T11:16:33.395Z,9268
2018-08-24T11:17:30.116Z,11928
2018-08-24T11:18:30.625Z,14644
2018-08-24T11:19:30.372Z,13556
2018-08-24T11:20:30.625Z,13572
2018-08-24T11:21:30.382Z,16128
2018-08-24T11:22:29.876Z,20384
2018-08-24T11:23:30.637Z,22560
2018-08-24T11:24:30.384Z,23776
2018-08-24T11:25:30.644Z,24704
2018-08-24T11:26:30.644Z,25664
2018-08-24T11:27:30.162Z,23904
2018-08-24T11:28:30.445Z,23328
2018-08-24T11:29:30.712Z,24192
2018-08-24T11:30:30.654Z,23648
2018-08-24T11:31:30.400Z,22720
2018-08-24T11:32:30.408Z,21152
2018-08-24T11:33:30.660Z,20352
2018-08-24T11:34:30.956Z,20384
2018-08-24T11:35:30.668Z,20800
2018-08-24T11:36:31.159Z,21408
2018-08-24T11:37:30.678Z,22464
2018-08-24T11:38:30.675Z,23392
2018-08-24T11:39:30.169Z,23840
2018-08-24T11:40:30.175Z,22016
2018-08-24T11:41:30.454Z,21280
2018-08-24T11:42:30.430Z,20512
2018-08-24T11:43:30.686Z,20384
2018-08-24T11:44:30.443Z,20448
2018-08-24T11:45:30.693Z,20704
2018-08-24T11:46:30.691Z,20640
2018-08-24T11:47:30.694Z,20384
2018-08-24T11:48:30.450Z,19744
2018-08-24T11:49:30.702Z,18848
2018-08-24T11:50:30.454Z,18016
2018-08-24T11:51:30.459Z,18176
2018-08-24T11:52:30.457Z,18240
2018-08-24T11:53:30.713Z,17824
2018-08-24T11:54:31.099Z,17632
2018-08-24T11:55:30.733Z,17248
2018-08-24T11:56:30.220Z,17024
2018-08-24T11:57:30.222Z,16440
2018-08-24T11:58:30.728Z,15732
2018-08-24T11:59:30.478Z,14652
2018-08-24T12:00:30.744Z,13716
2018-08-24T12:01:30.736Z,12644
2018-08-24T12:02:29.984Z,12168
2018-08-24T12:03:30.742Z,11532
2018-08-24T12:04:30.274Z,11224
2018-08-24T12:05:30.501Z,11388
2018-08-24T12:06:30.755Z,11176
2018-08-24T12:07:30.757Z,10916
2018-08-24T12:08:31.148Z,10152
2018-08-24T12:09:30.811Z,9928
2018-08-24T12:10:30.533Z,9656
2018-08-24T12:11:30.260Z,9208
2018-08-24T12:12:30.861Z,8924
2018-08-24T12:13:30.531Z,8888
2018-08-24T12:14:30.523Z,9252
2018-08-24T12:15:30.274Z,9728
2018-08-24T12:16:30.272Z,9988
2018-08-24T12:17:30.542Z,10132
2018-08-24T12:18:30.485Z,10144
2018-08-24T12:19:30.029Z,9896
2018-08-24T12:20:30.787Z,9520
2018-08-24T12:21:30.801Z,9196
2018-08-24T12:22:30.792Z,9160
2018-08-24T12:23:30.794Z,9296
2018-08-24T12:24:31.230Z,9740
2018-08-24T12:25:30.305Z,10020
2018-08-24T12:26:30.551Z,10304
2018-08-24T12:27:30.550Z,10348
2018-08-24T12:28:30.913Z,10428
2018-08-24T12:29:30.549Z,10396
2018-08-24T12:30:30.812Z,10288
2018-08-24T12:31:30.806Z,10216
2018-08-24T12:32:30.815Z,10364
2018-08-24T12:33:30.564Z,10668
2018-08-24T12:34:30.570Z,11000
2018-08-24T12:35:30.566Z,11088
2018-08-24T12:36:31.106Z,10776
2018-08-24T12:37:30.062Z,10500
2018-08-24T12:38:30.824Z,10132
2018-08-24T12:39:30.316Z,10008
2018-08-24T12:40:30.568Z,10216
2018-08-24T12:41:30.932Z,10448
2018-08-24T12:42:30.576Z,10236
2018-08-24T12:43:31.057Z,10064
2018-08-24T12:44:30.832Z,9880
2018-08-24T12:45:30.578Z,9552
2018-08-24T12:46:30.831Z,9484
2018-08-24T12:47:30.828Z,9836
2018-08-24T12:48:30.833Z,10340
2018-08-24T12:49:30.848Z,10436
2018-08-24T12:50:30.331Z,10612
2018-08-24T12:51:30.334Z,10676
2018-08-24T12:52:30.839Z,11060
2018-08-24T12:53:30.588Z,11148
2018-08-24T12:54:30.589Z,11112
2018-08-24T12:55:30.861Z,11072
2018-08-24T12:56:30.347Z,11228
2018-08-24T12:57:30.852Z,11724
2018-08-24T12:58:30.858Z,11940
2018-08-24T12:59:30.602Z,12640
2018-08-24T13:00:30.601Z,12228
2018-08-24T13:01:30.864Z,12248
2018-08-24T13:02:30.865Z,12424
2018-08-24T13:03:30.610Z,12672
2018-08-24T13:04:30.629Z,12912
2018-08-24T13:05:30.869Z,13004
2018-08-24T13:06:30.860Z,13196
2018-08-24T13:07:30.858Z,13320
2018-08-24T13:08:30.674Z,13568
2018-08-24T13:09:30.611Z,13816
2018-08-24T13:10:30.877Z,14128
2018-08-24T13:11:30.876Z,14340
2018-08-24T13:12:30.867Z,14220
2018-08-24T13:13:30.621Z,13980
2018-08-24T13:14:30.876Z,13692
2018-08-24T13:15:31.092Z,13956
2018-08-24T13:16:30.884Z,14816
2018-08-24T13:17:30.631Z,15764
2018-08-24T13:18:30.885Z,16512
2018-08-24T13:19:30.636Z,16736
2018-08-24T13:20:30.632Z,16640
2018-08-24T13:21:31.121Z,16352
2018-08-24T13:22:30.893Z,16192
2018-08-24T13:23:30.888Z,15368
2018-08-24T13:24:30.943Z,15380
2018-08-24T13:25:30.894Z,15752
2018-08-24T13:26:30.895Z,15616
2018-08-24T13:27:31.021Z,15904
2018-08-24T13:28:30.397Z,15840
2018-08-24T13:29:30.911Z,15580
2018-08-24T13:30:30.914Z,15372
2018-08-24T13:31:30.408Z,15172
2018-08-24T13:32:30.656Z,15360
2018-08-24T13:33:30.911Z,15292